sensor_id;sensor_type;location;lat;lon;timestamp;P1;durP1;ratioP1;P2;durP2;ratioP2
1545;SDS011;766;51.502;9.752;2024-02-26T00:00:02;1.65;;;1.30;;
1545;SDS011;766;51.502;9.752;2024-02-26T00:02:35;3.50;;;1.67;;
1545;SDS011;766;51.502;9.752;2024-02-26T00:05:05;4.50;;;1.55;;
1545;SDS011;766;51.502;9.752;2024-02-26T00:07:34;2.45;;;1.60;;
1545;SDS011;766;51.502;9.752;2024-02-26T00:10:05;3.05;;;2.03;;
1545;SDS011;766;51.502;9.752;2024-02-26T00:12:35;2.05;;;1.50;;
1545;SDS011;766;51.502;9.752;2024-02-26T00:15:05;3.72;;;1.50;;
1545;SDS011;766;51.502;9.752;2024-02-26T00:17:34;3.83;;;1.40;;
1545;SDS011;766;51.502;9.752;2024-02-26T00:20:03;4.10;;;2.03;;
1545;SDS011;766;51.502;9.752;2024-02-26T00:22:35;3.13;;;1.80;;
1545;SDS011;766;51.502;9.752;2024-02-26T00:25:05;2.90;;;1.70;;
1545;SDS011;766;51.502;9.752;2024-02-26T00:27:34;6.32;;;2.15;;
1545;SDS011;766;51.502;9.752;2024-02-26T00:30:06;2.75;;;1.70;;
1545;SDS011;766;51.502;9.752;2024-02-26T00:32:35;2.70;;;1.35;;
1545;SDS011;766;51.502;9.752;2024-02-26T00:35:03;2.30;;;1.48;;
1545;SDS011;766;51.502;9.752;2024-02-26T00:37:32;2.42;;;1.63;;
1545;SDS011;766;51.502;9.752;2024-02-26T00:40:00;5.25;;;1.33;;
1545;SDS011;766;51.502;9.752;2024-02-26T00:42:30;2.90;;;1.50;;
1545;SDS011;766;51.502;9.752;2024-02-26T00:44:58;1.95;;;1.50;;
1545;SDS011;766;51.502;9.752;2024-02-26T00:47:27;4.03;;;1.80;;
1545;SDS011;766;51.502;9.752;2024-02-26T00:49:55;3.30;;;1.55;;
1545;SDS011;766;51.502;9.752;2024-02-26T00:52:23;3.10;;;1.50;;
1545;SDS011;766;51.502;9.752;2024-02-26T00:54:51;3.60;;;1.77;;
1545;SDS011;766;51.502;9.752;2024-02-26T00:57:20;2.40;;;1.52;;
1545;SDS011;766;51.502;9.752;2024-02-26T00:59:50;3.22;;;1.90;;
1545;SDS011;766;51.502;9.752;2024-02-26T01:02:20;2.22;;;1.33;;
1545;SDS011;766;51.502;9.752;2024-02-26T01:04:48;2.40;;;1.33;;
1545;SDS011;766;51.502;9.752;2024-02-26T01:07:16;4.55;;;1.60;;
1545;SDS011;766;51.502;9.752;2024-02-26T01:09:45;1.90;;;1.27;;
1545;SDS011;766;51.502;9.752;2024-02-26T01:12:13;2.95;;;1.38;;
1545;SDS011;766;51.502;9.752;2024-02-26T01:14:42;1.73;;;1.40;;
1545;SDS011;766;51.502;9.752;2024-02-26T01:17:11;4.32;;;1.67;;
1545;SDS011;766;51.502;9.752;2024-02-26T01:19:39;2.25;;;1.25;;
1545;SDS011;766;51.502;9.752;2024-02-26T01:22:08;1.83;;;1.20;;
1545;SDS011;766;51.502;9.752;2024-02-26T01:24:36;2.50;;;1.42;;
1545;SDS011;766;51.502;9.752;2024-02-26T01:27:04;2.35;;;1.40;;
1545;SDS011;766;51.502;9.752;2024-02-26T01:29:34;2.53;;;1.25;;
1545;SDS011;766;51.502;9.752;2024-02-26T01:32:02;4.50;;;1.30;;
1545;SDS011;766;51.502;9.752;2024-02-26T01:34:33;3.28;;;1.48;;
1545;SDS011;766;51.502;9.752;2024-02-26T01:37:03;3.67;;;1.33;;
1545;SDS011;766;51.502;9.752;2024-02-26T01:39:31;1.85;;;1.25;;
1545;SDS011;766;51.502;9.752;2024-02-26T01:42:00;3.08;;;1.40;;
1545;SDS011;766;51.502;9.752;2024-02-26T01:44:28;2.22;;;1.35;;
1545;SDS011;766;51.502;9.752;2024-02-26T01:46:56;2.00;;;1.20;;
1545;SDS011;766;51.502;9.752;2024-02-26T01:49:24;1.58;;;1.20;;
1545;SDS011;766;51.502;9.752;2024-02-26T01:51:54;1.95;;;1.05;;
1545;SDS011;766;51.502;9.752;2024-02-26T01:54:22;2.58;;;1.23;;
1545;SDS011;766;51.502;9.752;2024-02-26T01:56:51;1.67;;;1.27;;
1545;SDS011;766;51.502;9.752;2024-02-26T01:59:19;1.73;;;1.27;;
1545;SDS011;766;51.502;9.752;2024-02-26T02:01:52;3.08;;;1.45;;
1545;SDS011;766;51.502;9.752;2024-02-26T02:04:22;2.42;;;1.23;;
1545;SDS011;766;51.502;9.752;2024-02-26T02:06:51;2.60;;;1.27;;
1545;SDS011;766;51.502;9.752;2024-02-26T02:09:21;4.95;;;1.30;;
1545;SDS011;766;51.502;9.752;2024-02-26T02:11:50;2.08;;;1.33;;
1545;SDS011;766;51.502;9.752;2024-02-26T02:14:18;3.75;;;1.67;;
1545;SDS011;766;51.502;9.752;2024-02-26T02:16:46;1.55;;;1.00;;
1545;SDS011;766;51.502;9.752;2024-02-26T02:19:15;1.67;;;1.20;;
1545;SDS011;766;51.502;9.752;2024-02-26T02:21:44;1.38;;;1.02;;
1545;SDS011;766;51.502;9.752;2024-02-26T02:24:12;1.98;;;1.15;;
1545;SDS011;766;51.502;9.752;2024-02-26T02:26:40;2.28;;;1.10;;
1545;SDS011;766;51.502;9.752;2024-02-26T02:29:09;1.65;;;1.08;;
1545;SDS011;766;51.502;9.752;2024-02-26T02:31:38;2.00;;;1.00;;
1545;SDS011;766;51.502;9.752;2024-02-26T02:34:07;2.30;;;0.90;;
1545;SDS011;766;51.502;9.752;2024-02-26T02:36:49;1.50;;;1.02;;
1545;SDS011;766;51.502;9.752;2024-02-26T02:39:19;2.15;;;1.00;;
1545;SDS011;766;51.502;9.752;2024-02-26T02:41:47;1.58;;;1.10;;
1545;SDS011;766;51.502;9.752;2024-02-26T02:44:16;2.15;;;1.23;;
1545;SDS011;766;51.502;9.752;2024-02-26T02:46:44;3.03;;;1.02;;
1545;SDS011;766;51.502;9.752;2024-02-26T02:49:12;1.52;;;1.15;;
1545;SDS011;766;51.502;9.752;2024-02-26T02:51:41;2.95;;;1.42;;
1545;SDS011;766;51.502;9.752;2024-02-26T02:54:10;1.90;;;1.23;;
1545;SDS011;766;51.502;9.752;2024-02-26T02:56:38;3.35;;;1.63;;
1545;SDS011;766;51.502;9.752;2024-02-26T02:59:09;2.88;;;1.77;;
1545;SDS011;766;51.502;9.752;2024-02-26T03:01:37;1.95;;;1.40;;
1545;SDS011;766;51.502;9.752;2024-02-26T03:04:05;1.90;;;1.50;;
1545;SDS011;766;51.502;9.752;2024-02-26T03:06:33;1.40;;;1.10;;
1545;SDS011;766;51.502;9.752;2024-02-26T03:09:01;2.83;;;1.60;;
1545;SDS011;766;51.502;9.752;2024-02-26T03:11:31;2.85;;;1.60;;
1545;SDS011;766;51.502;9.752;2024-02-26T03:13:59;1.88;;;1.30;;
1545;SDS011;766;51.502;9.752;2024-02-26T03:16:28;2.17;;;1.50;;
1545;SDS011;766;51.502;9.752;2024-02-26T03:18:56;2.83;;;1.75;;
1545;SDS011;766;51.502;9.752;2024-02-26T03:21:25;1.88;;;1.30;;
1545;SDS011;766;51.502;9.752;2024-02-26T03:23:54;2.03;;;1.30;;
1545;SDS011;766;51.502;9.752;2024-02-26T03:26:23;1.63;;;1.23;;
1545;SDS011;766;51.502;9.752;2024-02-26T03:28:53;2.10;;;1.27;;
1545;SDS011;766;51.502;9.752;2024-02-26T03:31:21;1.85;;;1.10;;
1545;SDS011;766;51.502;9.752;2024-02-26T03:33:52;1.90;;;1.35;;
1545;SDS011;766;51.502;9.752;2024-02-26T03:36:20;2.85;;;1.50;;
1545;SDS011;766;51.502;9.752;2024-02-26T03:38:52;2.67;;;1.42;;
1545;SDS011;766;51.502;9.752;2024-02-26T03:41:20;3.00;;;1.50;;
1545;SDS011;766;51.502;9.752;2024-02-26T03:43:48;1.83;;;1.13;;
1545;SDS011;766;51.502;9.752;2024-02-26T03:46:18;2.88;;;1.50;;
1545;SDS011;766;51.502;9.752;2024-02-26T03:48:49;1.92;;;1.23;;
1545;SDS011;766;51.502;9.752;2024-02-26T03:51:17;2.22;;;1.50;;
1545;SDS011;766;51.502;9.752;2024-02-26T03:53:45;1.70;;;1.30;;
1545;SDS011;766;51.502;9.752;2024-02-26T03:56:14;1.83;;;1.48;;
1545;SDS011;766;51.502;9.752;2024-02-26T03:58:42;3.72;;;1.73;;
1545;SDS011;766;51.502;9.752;2024-02-26T04:01:11;2.17;;;1.42;;
1545;SDS011;766;51.502;9.752;2024-02-26T04:03:40;2.17;;;1.63;;
1545;SDS011;766;51.502;9.752;2024-02-26T04:06:10;2.78;;;1.50;;
1545;SDS011;766;51.502;9.752;2024-02-26T04:08:40;3.00;;;1.30;;
1545;SDS011;766;51.502;9.752;2024-02-26T04:11:09;2.47;;;1.63;;
1545;SDS011;766;51.502;9.752;2024-02-26T04:13:37;4.88;;;1.60;;
1545;SDS011;766;51.502;9.752;2024-02-26T04:16:06;2.10;;;1.60;;
1545;SDS011;766;51.502;9.752;2024-02-26T04:18:34;2.63;;;1.58;;
1545;SDS011;766;51.502;9.752;2024-02-26T04:21:04;3.58;;;1.65;;
1545;SDS011;766;51.502;9.752;2024-02-26T04:23:34;5.38;;;1.90;;
1545;SDS011;766;51.502;9.752;2024-02-26T04:26:04;1.67;;;1.58;;
1545;SDS011;766;51.502;9.752;2024-02-26T04:28:32;3.20;;;2.13;;
1545;SDS011;766;51.502;9.752;2024-02-26T04:31:01;3.85;;;2.60;;
1545;SDS011;766;51.502;9.752;2024-02-26T04:33:30;3.00;;;2.30;;
1545;SDS011;766;51.502;9.752;2024-02-26T04:36:11;3.60;;;2.38;;
1545;SDS011;766;51.502;9.752;2024-02-26T04:38:42;3.15;;;2.08;;
1545;SDS011;766;51.502;9.752;2024-02-26T04:41:11;4.82;;;2.75;;
1545;SDS011;766;51.502;9.752;2024-02-26T04:43:40;5.65;;;2.80;;
1545;SDS011;766;51.502;9.752;2024-02-26T04:46:09;3.42;;;2.50;;
1545;SDS011;766;51.502;9.752;2024-02-26T04:48:38;4.05;;;2.47;;
1545;SDS011;766;51.502;9.752;2024-02-26T04:51:10;5.78;;;2.90;;
1545;SDS011;766;51.502;9.752;2024-02-26T04:53:39;6.15;;;3.20;;
1545;SDS011;766;51.502;9.752;2024-02-26T04:56:08;6.30;;;3.40;;
1545;SDS011;766;51.502;9.752;2024-02-26T04:58:37;5.18;;;3.33;;
1545;SDS011;766;51.502;9.752;2024-02-26T05:01:06;5.68;;;3.88;;
1545;SDS011;766;51.502;9.752;2024-02-26T05:03:37;4.28;;;3.08;;
1545;SDS011;766;51.502;9.752;2024-02-26T05:06:06;6.50;;;3.10;;
1545;SDS011;766;51.502;9.752;2024-02-26T05:08:39;5.53;;;2.80;;
1545;SDS011;766;51.502;9.752;2024-02-26T05:11:10;5.07;;;3.13;;
1545;SDS011;766;51.502;9.752;2024-02-26T05:13:39;2.70;;;2.15;;
1545;SDS011;766;51.502;9.752;2024-02-26T05:16:07;4.53;;;2.22;;
1545;SDS011;766;51.502;9.752;2024-02-26T05:18:37;3.67;;;2.60;;
1545;SDS011;766;51.502;9.752;2024-02-26T05:21:05;4.78;;;3.20;;
1545;SDS011;766;51.502;9.752;2024-02-26T05:23:34;5.68;;;3.30;;
1545;SDS011;766;51.502;9.752;2024-02-26T05:26:06;7.00;;;4.20;;
1545;SDS011;766;51.502;9.752;2024-02-26T05:28:35;7.80;;;4.47;;
1545;SDS011;766;51.502;9.752;2024-02-26T05:31:06;10.65;;;4.32;;
1545;SDS011;766;51.502;9.752;2024-02-26T05:33:40;6.05;;;3.47;;
1545;SDS011;766;51.502;9.752;2024-02-26T05:36:17;7.95;;;4.07;;
1545;SDS011;766;51.502;9.752;2024-02-26T05:38:48;6.53;;;4.20;;
1545;SDS011;766;51.502;9.752;2024-02-26T05:41:21;5.93;;;3.78;;
1545;SDS011;766;51.502;9.752;2024-02-26T05:43:52;8.27;;;3.90;;
1545;SDS011;766;51.502;9.752;2024-02-26T05:46:21;10.52;;;5.53;;
1545;SDS011;766;51.502;9.752;2024-02-26T05:48:51;9.70;;;5.78;;
1545;SDS011;766;51.502;9.752;2024-02-26T05:51:20;12.35;;;7.63;;
1545;SDS011;766;51.502;9.752;2024-02-26T05:53:49;10.95;;;6.55;;
1545;SDS011;766;51.502;9.752;2024-02-26T05:56:23;12.68;;;7.25;;
1545;SDS011;766;51.502;9.752;2024-02-26T05:58:51;11.30;;;6.63;;
1545;SDS011;766;51.502;9.752;2024-02-26T06:01:20;14.60;;;7.35;;
1545;SDS011;766;51.502;9.752;2024-02-26T06:03:51;12.63;;;7.60;;
1545;SDS011;766;51.502;9.752;2024-02-26T06:06:22;14.38;;;8.00;;
1545;SDS011;766;51.502;9.752;2024-02-26T06:08:51;13.98;;;8.85;;
1545;SDS011;766;51.502;9.752;2024-02-26T06:11:20;14.65;;;8.95;;
1545;SDS011;766;51.502;9.752;2024-02-26T06:13:50;17.77;;;10.43;;
1545;SDS011;766;51.502;9.752;2024-02-26T06:16:18;16.90;;;10.85;;
1545;SDS011;766;51.502;9.752;2024-02-26T06:18:46;18.30;;;11.57;;
1545;SDS011;766;51.502;9.752;2024-02-26T06:21:15;18.55;;;11.38;;
1545;SDS011;766;51.502;9.752;2024-02-26T06:23:43;19.20;;;12.23;;
1545;SDS011;766;51.502;9.752;2024-02-26T06:26:12;23.50;;;13.73;;
1545;SDS011;766;51.502;9.752;2024-02-26T06:28:41;24.52;;;13.75;;
1545;SDS011;766;51.502;9.752;2024-02-26T06:31:09;25.05;;;13.57;;
1545;SDS011;766;51.502;9.752;2024-02-26T06:33:38;21.52;;;13.13;;
1545;SDS011;766;51.502;9.752;2024-02-26T06:36:06;21.73;;;13.45;;
1545;SDS011;766;51.502;9.752;2024-02-26T06:38:35;21.08;;;12.60;;
1545;SDS011;766;51.502;9.752;2024-02-26T06:41:03;25.48;;;14.75;;
1545;SDS011;766;51.502;9.752;2024-02-26T06:43:31;21.42;;;13.25;;
1545;SDS011;766;51.502;9.752;2024-02-26T06:46:01;21.98;;;13.27;;
1545;SDS011;766;51.502;9.752;2024-02-26T06:48:29;26.65;;;13.80;;
1545;SDS011;766;51.502;9.752;2024-02-26T06:50:57;19.10;;;12.88;;
1545;SDS011;766;51.502;9.752;2024-02-26T06:53:26;22.42;;;14.00;;
1545;SDS011;766;51.502;9.752;2024-02-26T06:55:54;25.83;;;14.10;;
1545;SDS011;766;51.502;9.752;2024-02-26T06:58:22;22.25;;;13.10;;
1545;SDS011;766;51.502;9.752;2024-02-26T07:00:50;21.88;;;12.95;;
1545;SDS011;766;51.502;9.752;2024-02-26T07:03:20;20.52;;;12.52;;
1545;SDS011;766;51.502;9.752;2024-02-26T07:05:49;22.60;;;13.68;;
1545;SDS011;766;51.502;9.752;2024-02-26T07:08:18;22.08;;;13.68;;
1545;SDS011;766;51.502;9.752;2024-02-26T07:10:47;19.75;;;12.73;;
1545;SDS011;766;51.502;9.752;2024-02-26T07:13:15;17.42;;;12.00;;
1545;SDS011;766;51.502;9.752;2024-02-26T07:15:43;18.33;;;11.68;;
1545;SDS011;766;51.502;9.752;2024-02-26T07:18:12;20.98;;;12.82;;
1545;SDS011;766;51.502;9.752;2024-02-26T07:20:42;20.27;;;11.60;;
1545;SDS011;766;51.502;9.752;2024-02-26T07:23:10;18.58;;;10.52;;
1545;SDS011;766;51.502;9.752;2024-02-26T07:25:39;18.85;;;11.52;;
1545;SDS011;766;51.502;9.752;2024-02-26T07:28:08;19.27;;;10.35;;
1545;SDS011;766;51.502;9.752;2024-02-26T07:30:37;14.77;;;9.90;;
1545;SDS011;766;51.502;9.752;2024-02-26T07:33:05;18.80;;;10.82;;
1545;SDS011;766;51.502;9.752;2024-02-26T07:35:34;17.30;;;10.40;;
1545;SDS011;766;51.502;9.752;2024-02-26T07:38:04;21.80;;;10.02;;
1545;SDS011;766;51.502;9.752;2024-02-26T07:40:39;14.00;;;9.25;;
1545;SDS011;766;51.502;9.752;2024-02-26T07:43:24;15.52;;;9.38;;
1545;SDS011;766;51.502;9.752;2024-02-26T07:45:52;14.52;;;9.32;;
1545;SDS011;766;51.502;9.752;2024-02-26T07:48:20;13.68;;;8.85;;
1545;SDS011;766;51.502;9.752;2024-02-26T07:50:49;13.55;;;8.65;;
1545;SDS011;766;51.502;9.752;2024-02-26T07:53:19;12.40;;;8.43;;
1545;SDS011;766;51.502;9.752;2024-02-26T07:55:47;14.77;;;9.60;;
1545;SDS011;766;51.502;9.752;2024-02-26T07:58:15;18.85;;;9.13;;
1545;SDS011;766;51.502;9.752;2024-02-26T08:00:43;13.07;;;9.43;;
1545;SDS011;766;51.502;9.752;2024-02-26T08:03:13;14.27;;;9.07;;
1545;SDS011;766;51.502;9.752;2024-02-26T08:05:42;16.58;;;8.43;;
1545;SDS011;766;51.502;9.752;2024-02-26T08:08:10;12.52;;;8.05;;
1545;SDS011;766;51.502;9.752;2024-02-26T08:10:40;10.23;;;6.93;;
1545;SDS011;766;51.502;9.752;2024-02-26T08:13:08;10.50;;;7.85;;
1545;SDS011;766;51.502;9.752;2024-02-26T08:15:36;11.70;;;7.40;;
1545;SDS011;766;51.502;9.752;2024-02-26T08:18:05;9.85;;;7.05;;
1545;SDS011;766;51.502;9.752;2024-02-26T08:20:33;11.02;;;7.18;;
1545;SDS011;766;51.502;9.752;2024-02-26T08:23:01;9.88;;;6.78;;
1545;SDS011;766;51.502;9.752;2024-02-26T08:25:29;11.45;;;6.72;;
1545;SDS011;766;51.502;9.752;2024-02-26T08:27:59;9.88;;;6.40;;
1545;SDS011;766;51.502;9.752;2024-02-26T08:30:27;10.00;;;7.00;;
1545;SDS011;766;51.502;9.752;2024-02-26T08:32:55;9.13;;;6.57;;
1545;SDS011;766;51.502;9.752;2024-02-26T08:35:24;12.52;;;6.50;;
1545;SDS011;766;51.502;9.752;2024-02-26T08:37:52;10.60;;;6.82;;
1545;SDS011;766;51.502;9.752;2024-02-26T08:40:20;9.32;;;6.38;;
1545;SDS011;766;51.502;9.752;2024-02-26T08:42:48;10.20;;;7.22;;
1545;SDS011;766;51.502;9.752;2024-02-26T08:45:18;9.15;;;6.15;;
1545;SDS011;766;51.502;9.752;2024-02-26T08:47:46;9.30;;;6.53;;
1545;SDS011;766;51.502;9.752;2024-02-26T08:50:15;10.45;;;7.18;;
1545;SDS011;766;51.502;9.752;2024-02-26T08:52:43;11.10;;;7.13;;
1545;SDS011;766;51.502;9.752;2024-02-26T08:55:15;9.93;;;6.85;;
1545;SDS011;766;51.502;9.752;2024-02-26T08:57:43;9.05;;;6.25;;
1545;SDS011;766;51.502;9.752;2024-02-26T09:00:11;10.38;;;7.03;;
1545;SDS011;766;51.502;9.752;2024-02-26T09:02:43;10.10;;;7.30;;
1545;SDS011;766;51.502;9.752;2024-02-26T09:05:13;9.38;;;6.63;;
1545;SDS011;766;51.502;9.752;2024-02-26T09:07:41;10.70;;;6.68;;
1545;SDS011;766;51.502;9.752;2024-02-26T09:10:09;11.68;;;6.47;;
1545;SDS011;766;51.502;9.752;2024-02-26T09:12:39;9.40;;;6.60;;
1545;SDS011;766;51.502;9.752;2024-02-26T09:15:12;9.85;;;7.05;;
1545;SDS011;766;51.502;9.752;2024-02-26T09:17:43;9.52;;;6.93;;
1545;SDS011;766;51.502;9.752;2024-02-26T09:20:14;12.20;;;7.45;;
1545;SDS011;766;51.502;9.752;2024-02-26T09:22:52;13.32;;;7.18;;
1545;SDS011;766;51.502;9.752;2024-02-26T09:25:21;11.20;;;7.25;;
1545;SDS011;766;51.502;9.752;2024-02-26T09:27:49;9.55;;;7.15;;
1545;SDS011;766;51.502;9.752;2024-02-26T09:30:20;9.07;;;6.80;;
1545;SDS011;766;51.502;9.752;2024-02-26T09:33:00;10.60;;;6.90;;
1545;SDS011;766;51.502;9.752;2024-02-26T09:35:29;11.55;;;7.45;;
1545;SDS011;766;51.502;9.752;2024-02-26T09:37:57;12.68;;;8.25;;
1545;SDS011;766;51.502;9.752;2024-02-26T09:40:33;11.77;;;6.97;;
1545;SDS011;766;51.502;9.752;2024-02-26T09:43:23;11.18;;;7.65;;
1545;SDS011;766;51.502;9.752;2024-02-26T09:45:53;9.95;;;7.03;;
1545;SDS011;766;51.502;9.752;2024-02-26T09:48:23;12.40;;;8.07;;
1545;SDS011;766;51.502;9.752;2024-02-26T09:50:52;10.43;;;7.47;;
1545;SDS011;766;51.502;9.752;2024-02-26T09:53:21;11.40;;;7.72;;
1545;SDS011;766;51.502;9.752;2024-02-26T09:55:49;12.65;;;8.23;;
1545;SDS011;766;51.502;9.752;2024-02-26T09:58:18;12.80;;;8.40;;
1545;SDS011;766;51.502;9.752;2024-02-26T10:00:50;11.63;;;8.05;;
1545;SDS011;766;51.502;9.752;2024-02-26T10:03:28;11.93;;;7.68;;
1545;SDS011;766;51.502;9.752;2024-02-26T10:05:59;14.93;;;8.98;;
1545;SDS011;766;51.502;9.752;2024-02-26T10:08:31;13.20;;;9.20;;
1545;SDS011;766;51.502;9.752;2024-02-26T10:11:01;11.27;;;8.13;;
1545;SDS011;766;51.502;9.752;2024-02-26T10:13:29;11.55;;;7.47;;
1545;SDS011;766;51.502;9.752;2024-02-26T10:15:57;14.02;;;7.45;;
1545;SDS011;766;51.502;9.752;2024-02-26T10:18:27;12.25;;;7.68;;
1545;SDS011;766;51.502;9.752;2024-02-26T10:21:06;12.88;;;7.68;;
1545;SDS011;766;51.502;9.752;2024-02-26T10:23:37;15.70;;;8.20;;
1545;SDS011;766;51.502;9.752;2024-02-26T10:26:05;12.40;;;7.63;;
1545;SDS011;766;51.502;9.752;2024-02-26T10:28:34;15.20;;;8.02;;
1545;SDS011;766;51.502;9.752;2024-02-26T10:31:04;11.73;;;7.80;;
1545;SDS011;766;51.502;9.752;2024-02-26T10:33:34;8.55;;;7.10;;
1545;SDS011;766;51.502;9.752;2024-02-26T10:36:07;13.02;;;8.07;;
1545;SDS011;766;51.502;9.752;2024-02-26T10:38:36;12.30;;;7.82;;
1545;SDS011;766;51.502;9.752;2024-02-26T10:41:06;12.13;;;7.10;;
1545;SDS011;766;51.502;9.752;2024-02-26T10:43:34;12.43;;;7.93;;
1545;SDS011;766;51.502;9.752;2024-02-26T10:46:03;12.52;;;8.05;;
1545;SDS011;766;51.502;9.752;2024-02-26T10:48:36;13.68;;;8.50;;
1545;SDS011;766;51.502;9.752;2024-02-26T10:51:05;12.32;;;8.10;;
1545;SDS011;766;51.502;9.752;2024-02-26T10:53:35;14.35;;;7.88;;
1545;SDS011;766;51.502;9.752;2024-02-26T10:56:08;11.45;;;7.55;;
1545;SDS011;766;51.502;9.752;2024-02-26T10:58:37;11.93;;;7.47;;
1545;SDS011;766;51.502;9.752;2024-02-26T11:01:06;11.05;;;7.45;;
1545;SDS011;766;51.502;9.752;2024-02-26T11:03:37;11.88;;;7.57;;
1545;SDS011;766;51.502;9.752;2024-02-26T11:06:06;13.98;;;7.53;;
1545;SDS011;766;51.502;9.752;2024-02-26T11:08:37;11.00;;;7.13;;
1545;SDS011;766;51.502;9.752;2024-02-26T11:11:05;11.10;;;7.10;;
1545;SDS011;766;51.502;9.752;2024-02-26T11:13:35;11.25;;;7.18;;
1545;SDS011;766;51.502;9.752;2024-02-26T11:16:09;14.85;;;7.80;;
1545;SDS011;766;51.502;9.752;2024-02-26T11:18:42;12.98;;;7.50;;
1545;SDS011;766;51.502;9.752;2024-02-26T11:21:15;11.23;;;7.15;;
1545;SDS011;766;51.502;9.752;2024-02-26T11:23:45;11.30;;;7.55;;
1545;SDS011;766;51.502;9.752;2024-02-26T11:26:16;12.77;;;7.38;;
1545;SDS011;766;51.502;9.752;2024-02-26T11:28:45;10.32;;;6.80;;
1545;SDS011;766;51.502;9.752;2024-02-26T11:31:14;9.50;;;7.00;;
1545;SDS011;766;51.502;9.752;2024-02-26T11:33:45;10.35;;;7.38;;
1545;SDS011;766;51.502;9.752;2024-02-26T11:36:15;10.65;;;7.18;;
1545;SDS011;766;51.502;9.752;2024-02-26T11:38:46;9.50;;;6.45;;
1545;SDS011;766;51.502;9.752;2024-02-26T11:41:18;12.75;;;6.97;;
1545;SDS011;766;51.502;9.752;2024-02-26T11:43:50;14.00;;;6.93;;
1545;SDS011;766;51.502;9.752;2024-02-26T11:46:26;9.73;;;7.07;;
1545;SDS011;766;51.502;9.752;2024-02-26T11:48:57;10.23;;;6.55;;
1545;SDS011;766;51.502;9.752;2024-02-26T11:51:28;10.98;;;6.82;;
1545;SDS011;766;51.502;9.752;2024-02-26T11:54:00;9.05;;;6.68;;
1545;SDS011;766;51.502;9.752;2024-02-26T11:56:29;10.70;;;6.65;;
1545;SDS011;766;51.502;9.752;2024-02-26T11:59:01;9.65;;;6.32;;
1545;SDS011;766;51.502;9.752;2024-02-26T12:01:44;11.75;;;7.00;;
1545;SDS011;766;51.502;9.752;2024-02-26T12:04:18;13.93;;;6.28;;
1545;SDS011;766;51.502;9.752;2024-02-26T12:06:50;11.18;;;6.00;;
1545;SDS011;766;51.502;9.752;2024-02-26T12:09:32;8.98;;;6.10;;
1545;SDS011;766;51.502;9.752;2024-02-26T12:12:07;8.98;;;6.20;;
1545;SDS011;766;51.502;9.752;2024-02-26T12:14:38;9.20;;;6.07;;
1545;SDS011;766;51.502;9.752;2024-02-26T12:17:07;10.32;;;6.63;;
1545;SDS011;766;51.502;9.752;2024-02-26T12:19:48;8.35;;;5.80;;
1545;SDS011;766;51.502;9.752;2024-02-26T12:22:17;7.95;;;5.70;;
1545;SDS011;766;51.502;9.752;2024-02-26T12:24:45;10.20;;;5.90;;
1545;SDS011;766;51.502;9.752;2024-02-26T12:27:16;10.43;;;6.30;;
1545;SDS011;766;51.502;9.752;2024-02-26T12:29:44;8.50;;;5.43;;
1545;SDS011;766;51.502;9.752;2024-02-26T12:32:13;8.45;;;5.40;;
1545;SDS011;766;51.502;9.752;2024-02-26T12:34:41;10.70;;;5.88;;
1545;SDS011;766;51.502;9.752;2024-02-26T12:37:11;8.60;;;5.53;;
1545;SDS011;766;51.502;9.752;2024-02-26T12:39:40;10.32;;;6.00;;
1545;SDS011;766;51.502;9.752;2024-02-26T12:42:08;9.73;;;5.30;;
1545;SDS011;766;51.502;9.752;2024-02-26T12:44:37;9.00;;;6.18;;
1545;SDS011;766;51.502;9.752;2024-02-26T12:47:05;7.70;;;5.22;;
1545;SDS011;766;51.502;9.752;2024-02-26T12:49:33;9.98;;;5.47;;
1545;SDS011;766;51.502;9.752;2024-02-26T12:52:05;7.47;;;5.43;;
1545;SDS011;766;51.502;9.752;2024-02-26T12:54:35;13.10;;;6.07;;
1545;SDS011;766;51.502;9.752;2024-02-26T12:57:05;11.35;;;6.47;;
1545;SDS011;766;51.502;9.752;2024-02-26T12:59:35;7.78;;;5.65;;
1545;SDS011;766;51.502;9.752;2024-02-26T13:02:06;7.93;;;5.15;;
1545;SDS011;766;51.502;9.752;2024-02-26T13:04:38;10.57;;;5.90;;
1545;SDS011;766;51.502;9.752;2024-02-26T13:07:07;11.38;;;5.55;;
1545;SDS011;766;51.502;9.752;2024-02-26T13:09:37;9.10;;;5.47;;
1545;SDS011;766;51.502;9.752;2024-02-26T13:12:06;7.35;;;5.07;;
1545;SDS011;766;51.502;9.752;2024-02-26T13:14:40;8.77;;;5.60;;
1545;SDS011;766;51.502;9.752;2024-02-26T13:17:09;7.38;;;5.13;;
1545;SDS011;766;51.502;9.752;2024-02-26T13:19:48;10.65;;;5.20;;
1545;SDS011;766;51.502;9.752;2024-02-26T13:22:16;9.27;;;5.15;;
1545;SDS011;766;51.502;9.752;2024-02-26T13:24:54;8.15;;;5.20;;
1545;SDS011;766;51.502;9.752;2024-02-26T13:27:23;9.93;;;5.63;;
1545;SDS011;766;51.502;9.752;2024-02-26T13:30:01;8.65;;;5.35;;
1545;SDS011;766;51.502;9.752;2024-02-26T13:32:32;8.63;;;4.82;;
1545;SDS011;766;51.502;9.752;2024-02-26T13:35:05;5.20;;;4.47;;
1545;SDS011;766;51.502;9.752;2024-02-26T13:37:35;7.82;;;5.07;;
1545;SDS011;766;51.502;9.752;2024-02-26T13:40:06;8.60;;;5.57;;
1545;SDS011;766;51.502;9.752;2024-02-26T13:42:35;8.35;;;4.90;;
1545;SDS011;766;51.502;9.752;2024-02-26T13:45:05;10.55;;;5.57;;
1545;SDS011;766;51.502;9.752;2024-02-26T13:47:34;7.90;;;5.90;;
1545;SDS011;766;51.502;9.752;2024-02-26T13:50:03;7.80;;;4.78;;
1545;SDS011;766;51.502;9.752;2024-02-26T13:52:34;9.85;;;4.90;;
1545;SDS011;766;51.502;9.752;2024-02-26T13:55:02;7.95;;;4.97;;
1545;SDS011;766;51.502;9.752;2024-02-26T13:57:33;9.52;;;6.13;;
1545;SDS011;766;51.502;9.752;2024-02-26T14:00:02;7.40;;;5.05;;
1545;SDS011;766;51.502;9.752;2024-02-26T14:02:30;8.20;;;4.70;;
1545;SDS011;766;51.502;9.752;2024-02-26T14:05:00;7.32;;;4.95;;
1545;SDS011;766;51.502;9.752;2024-02-26T14:07:31;10.07;;;5.25;;
1545;SDS011;766;51.502;9.752;2024-02-26T14:09:59;7.38;;;5.40;;
1545;SDS011;766;51.502;9.752;2024-02-26T14:12:27;9.63;;;5.80;;
1545;SDS011;766;51.502;9.752;2024-02-26T14:14:57;8.50;;;5.20;;
1545;SDS011;766;51.502;9.752;2024-02-26T14:17:27;7.18;;;4.93;;
1545;SDS011;766;51.502;9.752;2024-02-26T14:19:55;9.52;;;5.55;;
1545;SDS011;766;51.502;9.752;2024-02-26T14:22:25;8.02;;;5.65;;
1545;SDS011;766;51.502;9.752;2024-02-26T14:24:53;6.85;;;4.30;;
1545;SDS011;766;51.502;9.752;2024-02-26T14:27:22;9.25;;;5.05;;
1545;SDS011;766;51.502;9.752;2024-02-26T14:29:50;8.80;;;5.10;;
1545;SDS011;766;51.502;9.752;2024-02-26T14:32:21;7.13;;;5.18;;
1545;SDS011;766;51.502;9.752;2024-02-26T14:34:51;7.50;;;5.40;;
1545;SDS011;766;51.502;9.752;2024-02-26T14:37:19;8.93;;;5.45;;
1545;SDS011;766;51.502;9.752;2024-02-26T14:39:47;9.07;;;5.50;;
1545;SDS011;766;51.502;9.752;2024-02-26T14:42:18;9.52;;;5.10;;
1545;SDS011;766;51.502;9.752;2024-02-26T14:44:46;11.30;;;5.90;;
1545;SDS011;766;51.502;9.752;2024-02-26T14:47:14;10.52;;;6.18;;
1545;SDS011;766;51.502;9.752;2024-02-26T14:49:44;9.70;;;5.95;;
1545;SDS011;766;51.502;9.752;2024-02-26T14:52:14;10.55;;;5.78;;
1545;SDS011;766;51.502;9.752;2024-02-26T14:54:42;10.98;;;5.40;;
1545;SDS011;766;51.502;9.752;2024-02-26T14:57:11;10.23;;;6.22;;
1545;SDS011;766;51.502;9.752;2024-02-26T14:59:40;9.10;;;6.30;;
1545;SDS011;766;51.502;9.752;2024-02-26T15:02:08;9.50;;;6.15;;
1545;SDS011;766;51.502;9.752;2024-02-26T15:04:37;9.30;;;5.35;;
1545;SDS011;766;51.502;9.752;2024-02-26T15:07:06;7.60;;;5.43;;
1545;SDS011;766;51.502;9.752;2024-02-26T15:09:38;9.57;;;5.65;;
1545;SDS011;766;51.502;9.752;2024-02-26T15:12:07;10.48;;;5.57;;
1545;SDS011;766;51.502;9.752;2024-02-26T15:14:35;8.75;;;5.28;;
1545;SDS011;766;51.502;9.752;2024-02-26T15:17:04;9.55;;;5.82;;
1545;SDS011;766;51.502;9.752;2024-02-26T15:19:37;10.07;;;6.40;;
1545;SDS011;766;51.502;9.752;2024-02-26T15:22:06;9.85;;;6.38;;
1545;SDS011;766;51.502;9.752;2024-02-26T15:24:35;12.05;;;6.05;;
1545;SDS011;766;51.502;9.752;2024-02-26T15:27:03;12.60;;;6.43;;
1545;SDS011;766;51.502;9.752;2024-02-26T15:29:32;8.75;;;5.78;;
1545;SDS011;766;51.502;9.752;2024-02-26T15:32:02;15.45;;;6.57;;
1545;SDS011;766;51.502;9.752;2024-02-26T15:34:30;10.63;;;5.80;;
1545;SDS011;766;51.502;9.752;2024-02-26T15:36:59;9.70;;;5.82;;